sensor_id;sensor_type;location;lat;lon;timestamp;P1;durP1;ratioP1;P2;durP2;ratioP2
65567;SDS011;52211;50.154;8.682;2023-07-16T00:00:55;1.70;;;1.40;;
65567;SDS011;52211;50.154;8.682;2023-07-16T00:03:22;2.20;;;1.77;;
65567;SDS011;52211;50.154;8.682;2023-07-16T00:05:50;1.57;;;1.47;;
65567;SDS011;52211;50.154;8.682;2023-07-16T00:08:17;1.80;;;1.70;;
65567;SDS011;52211;50.154;8.682;2023-07-16T00:10:46;1.97;;;1.50;;
65567;SDS011;52211;50.154;8.682;2023-07-16T00:13:16;1.57;;;1.47;;
65567;SDS011;52211;50.154;8.682;2023-07-16T00:15:45;2.47;;;1.93;;
65567;SDS011;52211;50.154;8.682;2023-07-16T00:18:12;2.00;;;1.87;;
65567;SDS011;52211;50.154;8.682;2023-07-16T00:20:43;2.20;;;2.00;;
65567;SDS011;52211;50.154;8.682;2023-07-16T00:23:10;2.40;;;1.70;;
65567;SDS011;52211;50.154;8.682;2023-07-16T00:25:37;2.00;;;1.90;;
65567;SDS011;52211;50.154;8.682;2023-07-16T00:28:07;1.97;;;1.87;;
65567;SDS011;52211;50.154;8.682;2023-07-16T00:30:38;1.87;;;1.77;;
65567;SDS011;52211;50.154;8.682;2023-07-16T00:33:07;2.90;;;1.80;;
65567;SDS011;52211;50.154;8.682;2023-07-16T00:35:39;3.53;;;1.90;;
65567;SDS011;52211;50.154;8.682;2023-07-16T00:38:19;2.47;;;1.83;;
65567;SDS011;52211;50.154;8.682;2023-07-16T00:40:49;1.57;;;1.47;;
65567;SDS011;52211;50.154;8.682;2023-07-16T00:43:16;1.80;;;1.50;;
65567;SDS011;52211;50.154;8.682;2023-07-16T00:45:45;1.60;;;1.50;;
65567;SDS011;52211;50.154;8.682;2023-07-16T00:48:15;1.40;;;1.30;;
65567;SDS011;52211;50.154;8.682;2023-07-16T00:50:42;1.50;;;1.40;;
65567;SDS011;52211;50.154;8.682;2023-07-16T00:53:10;2.73;;;1.60;;
65567;SDS011;52211;50.154;8.682;2023-07-16T00:55:38;2.13;;;1.93;;
65567;SDS011;52211;50.154;8.682;2023-07-16T00:58:06;1.87;;;1.67;;
65567;SDS011;52211;50.154;8.682;2023-07-16T01:00:41;1.77;;;1.50;;
65567;SDS011;52211;50.154;8.682;2023-07-16T01:03:09;1.97;;;1.80;;
65567;SDS011;52211;50.154;8.682;2023-07-16T01:08:35;2.00;;;1.80;;
65567;SDS011;52211;50.154;8.682;2023-07-16T01:11:14;1.40;;;1.30;;
65567;SDS011;52211;50.154;8.682;2023-07-16T01:13:44;1.67;;;1.57;;
65567;SDS011;52211;50.154;8.682;2023-07-16T01:16:23;1.90;;;1.43;;
65567;SDS011;52211;50.154;8.682;2023-07-16T01:18:51;2.70;;;1.60;;
65567;SDS011;52211;50.154;8.682;2023-07-16T01:21:26;2.10;;;2.00;;
65567;SDS011;52211;50.154;8.682;2023-07-16T01:24:29;2.20;;;2.00;;
65567;SDS011;52211;50.154;8.682;2023-07-16T01:29:44;1.67;;;1.57;;
65567;SDS011;52211;50.154;8.682;2023-07-16T01:32:19;1.50;;;1.40;;
65567;SDS011;52211;50.154;8.682;2023-07-16T01:34:51;1.83;;;1.60;;
65567;SDS011;52211;50.154;8.682;2023-07-16T01:37:21;1.77;;;1.37;;
65567;SDS011;52211;50.154;8.682;2023-07-16T01:39:50;1.43;;;1.33;;
65567;SDS011;52211;50.154;8.682;2023-07-16T01:42:20;1.27;;;1.23;;
65567;SDS011;52211;50.154;8.682;2023-07-16T01:44:49;1.20;;;1.10;;
65567;SDS011;52211;50.154;8.682;2023-07-16T01:50:09;1.47;;;1.37;;
65567;SDS011;52211;50.154;8.682;2023-07-16T01:52:36;1.33;;;1.23;;
65567;SDS011;52211;50.154;8.682;2023-07-16T01:55:08;1.83;;;1.50;;
65567;SDS011;52211;50.154;8.682;2023-07-16T01:57:35;1.40;;;1.30;;
65567;SDS011;52211;50.154;8.682;2023-07-16T02:00:04;2.10;;;1.50;;
65567;SDS011;52211;50.154;8.682;2023-07-16T02:02:44;1.00;;;1.00;;
65567;SDS011;52211;50.154;8.682;2023-07-16T02:05:14;1.57;;;1.20;;
65567;SDS011;52211;50.154;8.682;2023-07-16T02:07:41;1.60;;;1.50;;
65567;SDS011;52211;50.154;8.682;2023-07-16T02:10:10;1.53;;;1.43;;
65567;SDS011;52211;50.154;8.682;2023-07-16T02:12:40;2.93;;;1.73;;
65567;SDS011;52211;50.154;8.682;2023-07-16T02:15:07;1.40;;;1.30;;
65567;SDS011;52211;50.154;8.682;2023-07-16T02:17:36;2.33;;;1.10;;
65567;SDS011;52211;50.154;8.682;2023-07-16T02:20:08;1.60;;;1.50;;
65567;SDS011;52211;50.154;8.682;2023-07-16T02:22:38;2.23;;;1.30;;
65567;SDS011;52211;50.154;8.682;2023-07-16T02:25:05;1.30;;;1.20;;
65567;SDS011;52211;50.154;8.682;2023-07-16T02:27:33;2.17;;;1.33;;
65567;SDS011;52211;50.154;8.682;2023-07-16T02:30:03;1.00;;;1.00;;
65567;SDS011;52211;50.154;8.682;2023-07-16T02:32:32;1.60;;;1.20;;
65567;SDS011;52211;50.154;8.682;2023-07-16T02:35:05;1.43;;;1.20;;
65567;SDS011;52211;50.154;8.682;2023-07-16T02:37:34;2.93;;;1.27;;
65567;SDS011;52211;50.154;8.682;2023-07-16T02:40:02;2.90;;;1.40;;
65567;SDS011;52211;50.154;8.682;2023-07-16T02:42:32;1.53;;;1.20;;
65567;SDS011;52211;50.154;8.682;2023-07-16T02:45:02;1.63;;;1.50;;
65567;SDS011;52211;50.154;8.682;2023-07-16T02:47:29;2.70;;;1.87;;
65567;SDS011;52211;50.154;8.682;2023-07-16T02:50:02;2.70;;;1.20;;
65567;SDS011;52211;50.154;8.682;2023-07-16T02:52:29;1.60;;;1.27;;
65567;SDS011;52211;50.154;8.682;2023-07-16T02:54:58;1.83;;;1.37;;
65567;SDS011;52211;50.154;8.682;2023-07-16T02:57:34;1.67;;;1.53;;
65567;SDS011;52211;50.154;8.682;2023-07-16T03:00:04;1.50;;;1.40;;
65567;SDS011;52211;50.154;8.682;2023-07-16T03:02:34;1.93;;;1.50;;
65567;SDS011;52211;50.154;8.682;2023-07-16T03:05:01;2.40;;;1.50;;
65567;SDS011;52211;50.154;8.682;2023-07-16T03:07:29;1.47;;;1.33;;
65567;SDS011;52211;50.154;8.682;2023-07-16T03:09:56;4.37;;;1.93;;
65567;SDS011;52211;50.154;8.682;2023-07-16T03:12:28;1.70;;;1.60;;
65567;SDS011;52211;50.154;8.682;2023-07-16T03:14:57;1.47;;;1.37;;
65567;SDS011;52211;50.154;8.682;2023-07-16T03:17:24;1.50;;;1.23;;
65567;SDS011;52211;50.154;8.682;2023-07-16T03:19:54;1.47;;;1.33;;
65567;SDS011;52211;50.154;8.682;2023-07-16T03:22:23;1.53;;;1.43;;
65567;SDS011;52211;50.154;8.682;2023-07-16T03:24:50;1.93;;;1.70;;
65567;SDS011;52211;50.154;8.682;2023-07-16T03:27:19;1.60;;;1.50;;
65567;SDS011;52211;50.154;8.682;2023-07-16T03:29:55;1.87;;;1.77;;
65567;SDS011;52211;50.154;8.682;2023-07-16T03:32:24;1.63;;;1.53;;
65567;SDS011;52211;50.154;8.682;2023-07-16T03:35:03;2.60;;;1.97;;
65567;SDS011;52211;50.154;8.682;2023-07-16T03:37:33;1.90;;;1.40;;
65567;SDS011;52211;50.154;8.682;2023-07-16T03:40:11;1.67;;;1.57;;
65567;SDS011;52211;50.154;8.682;2023-07-16T03:42:45;1.60;;;1.40;;
65567;SDS011;52211;50.154;8.682;2023-07-16T03:45:14;1.97;;;1.47;;
65567;SDS011;52211;50.154;8.682;2023-07-16T03:47:43;1.50;;;1.33;;
65567;SDS011;52211;50.154;8.682;2023-07-16T03:50:17;1.97;;;1.77;;
65567;SDS011;52211;50.154;8.682;2023-07-16T03:52:47;1.57;;;1.47;;
65567;SDS011;52211;50.154;8.682;2023-07-16T03:55:19;2.13;;;1.40;;
65567;SDS011;52211;50.154;8.682;2023-07-16T03:57:46;1.60;;;1.50;;
65567;SDS011;52211;50.154;8.682;2023-07-16T04:00:13;1.77;;;1.40;;
65567;SDS011;52211;50.154;8.682;2023-07-16T04:02:40;1.67;;;1.50;;
65567;SDS011;52211;50.154;8.682;2023-07-16T04:05:15;3.53;;;1.87;;
65567;SDS011;52211;50.154;8.682;2023-07-16T04:07:51;1.60;;;1.50;;
65567;SDS011;52211;50.154;8.682;2023-07-16T04:10:21;3.97;;;1.90;;
65567;SDS011;52211;50.154;8.682;2023-07-16T04:12:50;1.87;;;1.70;;
65567;SDS011;52211;50.154;8.682;2023-07-16T04:15:19;2.80;;;2.20;;
65567;SDS011;52211;50.154;8.682;2023-07-16T04:17:48;1.57;;;1.47;;
65567;SDS011;52211;50.154;8.682;2023-07-16T04:20:15;1.87;;;1.77;;
65567;SDS011;52211;50.154;8.682;2023-07-16T04:22:45;3.73;;;1.57;;
65567;SDS011;52211;50.154;8.682;2023-07-16T04:25:12;2.73;;;2.00;;
65567;SDS011;52211;50.154;8.682;2023-07-16T04:27:42;3.33;;;2.10;;
65567;SDS011;52211;50.154;8.682;2023-07-16T04:30:10;2.33;;;1.77;;
65567;SDS011;52211;50.154;8.682;2023-07-16T04:32:39;2.10;;;1.90;;
65567;SDS011;52211;50.154;8.682;2023-07-16T04:35:06;2.07;;;1.90;;
65567;SDS011;52211;50.154;8.682;2023-07-16T04:37:33;2.13;;;1.97;;
65567;SDS011;52211;50.154;8.682;2023-07-16T04:40:05;1.60;;;1.50;;
65567;SDS011;52211;50.154;8.682;2023-07-16T04:42:40;3.33;;;2.00;;
65567;SDS011;52211;50.154;8.682;2023-07-16T04:45:09;5.87;;;1.90;;
65567;SDS011;52211;50.154;8.682;2023-07-16T04:47:36;2.70;;;1.63;;
65567;SDS011;52211;50.154;8.682;2023-07-16T04:50:06;1.80;;;1.70;;
65567;SDS011;52211;50.154;8.682;2023-07-16T04:52:35;1.83;;;1.73;;
65567;SDS011;52211;50.154;8.682;2023-07-16T04:55:05;2.70;;;1.70;;
65567;SDS011;52211;50.154;8.682;2023-07-16T04:57:32;1.83;;;1.70;;
65567;SDS011;52211;50.154;8.682;2023-07-16T05:00:02;1.73;;;1.63;;
65567;SDS011;52211;50.154;8.682;2023-07-16T05:02:32;3.83;;;2.23;;
65567;SDS011;52211;50.154;8.682;2023-07-16T05:04:59;4.13;;;2.33;;
65567;SDS011;52211;50.154;8.682;2023-07-16T05:07:33;2.03;;;1.83;;
65567;SDS011;52211;50.154;8.682;2023-07-16T05:10:02;2.57;;;1.80;;
65567;SDS011;52211;50.154;8.682;2023-07-16T05:12:32;3.40;;;2.23;;
65567;SDS011;52211;50.154;8.682;2023-07-16T05:15:01;2.47;;;2.13;;
65567;SDS011;52211;50.154;8.682;2023-07-16T05:17:31;5.70;;;1.87;;
65567;SDS011;52211;50.154;8.682;2023-07-16T05:20:00;2.00;;;1.60;;
65567;SDS011;52211;50.154;8.682;2023-07-16T05:22:27;2.03;;;1.70;;
65567;SDS011;52211;50.154;8.682;2023-07-16T05:24:54;1.83;;;1.60;;
65567;SDS011;52211;50.154;8.682;2023-07-16T05:27:23;1.90;;;1.80;;
65567;SDS011;52211;50.154;8.682;2023-07-16T05:29:50;4.60;;;2.00;;
65567;SDS011;52211;50.154;8.682;2023-07-16T05:32:24;2.03;;;1.83;;
65567;SDS011;52211;50.154;8.682;2023-07-16T05:34:53;2.40;;;2.20;;
65567;SDS011;52211;50.154;8.682;2023-07-16T05:37:22;2.83;;;1.63;;
65567;SDS011;52211;50.154;8.682;2023-07-16T05:39:51;2.67;;;2.00;;
65567;SDS011;52211;50.154;8.682;2023-07-16T05:42:18;2.20;;;2.00;;
65567;SDS011;52211;50.154;8.682;2023-07-16T05:44:47;3.47;;;2.40;;
65567;SDS011;52211;50.154;8.682;2023-07-16T05:47:17;1.73;;;1.63;;
65567;SDS011;52211;50.154;8.682;2023-07-16T05:49:46;4.47;;;1.83;;
65567;SDS011;52211;50.154;8.682;2023-07-16T05:52:15;2.00;;;1.80;;
65567;SDS011;52211;50.154;8.682;2023-07-16T05:54:43;3.03;;;2.10;;
65567;SDS011;52211;50.154;8.682;2023-07-16T05:57:13;4.13;;;2.33;;
65567;SDS011;52211;50.154;8.682;2023-07-16T05:59:41;4.87;;;2.27;;
65567;SDS011;52211;50.154;8.682;2023-07-16T06:02:11;4.60;;;2.27;;
65567;SDS011;52211;50.154;8.682;2023-07-16T06:04:42;2.53;;;1.83;;
65567;SDS011;52211;50.154;8.682;2023-07-16T06:07:12;1.70;;;1.60;;
65567;SDS011;52211;50.154;8.682;2023-07-16T06:09:39;2.77;;;1.83;;
65567;SDS011;52211;50.154;8.682;2023-07-16T06:12:06;4.00;;;2.00;;
65567;SDS011;52211;50.154;8.682;2023-07-16T06:14:35;2.10;;;1.90;;
65567;SDS011;52211;50.154;8.682;2023-07-16T06:17:05;4.57;;;2.90;;
65567;SDS011;52211;50.154;8.682;2023-07-16T06:19:32;6.40;;;2.47;;
65567;SDS011;52211;50.154;8.682;2023-07-16T06:21:59;3.10;;;2.00;;
65567;SDS011;52211;50.154;8.682;2023-07-16T06:24:30;3.47;;;2.37;;
65567;SDS011;52211;50.154;8.682;2023-07-16T06:26:59;1.97;;;1.67;;
65567;SDS011;52211;50.154;8.682;2023-07-16T06:29:31;4.93;;;2.23;;
65567;SDS011;52211;50.154;8.682;2023-07-16T06:31:58;2.17;;;1.90;;
65567;SDS011;52211;50.154;8.682;2023-07-16T06:34:25;3.03;;;2.30;;
65567;SDS011;52211;50.154;8.682;2023-07-16T06:36:57;2.13;;;1.80;;
65567;SDS011;52211;50.154;8.682;2023-07-16T06:39:23;2.10;;;1.97;;
65567;SDS011;52211;50.154;8.682;2023-07-16T06:41:50;6.20;;;3.23;;
65567;SDS011;52211;50.154;8.682;2023-07-16T06:44:20;2.27;;;2.07;;
65567;SDS011;52211;50.154;8.682;2023-07-16T06:46:49;3.63;;;2.37;;
65567;SDS011;52211;50.154;8.682;2023-07-16T06:49:16;6.73;;;2.27;;
65567;SDS011;52211;50.154;8.682;2023-07-16T06:51:48;2.43;;;2.23;;
65567;SDS011;52211;50.154;8.682;2023-07-16T06:54:19;2.63;;;1.83;;
65567;SDS011;52211;50.154;8.682;2023-07-16T06:56:50;3.77;;;2.50;;
65567;SDS011;52211;50.154;8.682;2023-07-16T06:59:17;3.77;;;3.13;;
65567;SDS011;52211;50.154;8.682;2023-07-16T07:01:44;4.10;;;2.53;;
65567;SDS011;52211;50.154;8.682;2023-07-16T07:04:13;4.80;;;2.40;;
65567;SDS011;52211;50.154;8.682;2023-07-16T07:06:42;2.53;;;2.30;;
65567;SDS011;52211;50.154;8.682;2023-07-16T07:09:12;3.83;;;2.50;;
65567;SDS011;52211;50.154;8.682;2023-07-16T07:11:41;3.53;;;2.40;;
65567;SDS011;52211;50.154;8.682;2023-07-16T07:14:10;2.23;;;1.83;;
65567;SDS011;52211;50.154;8.682;2023-07-16T07:16:37;2.60;;;2.00;;
65567;SDS011;52211;50.154;8.682;2023-07-16T07:19:07;3.90;;;2.07;;
65567;SDS011;52211;50.154;8.682;2023-07-16T07:21:35;3.50;;;2.50;;
65567;SDS011;52211;50.154;8.682;2023-07-16T07:24:04;3.97;;;2.63;;
65567;SDS011;52211;50.154;8.682;2023-07-16T07:26:31;3.27;;;2.67;;
65567;SDS011;52211;50.154;8.682;2023-07-16T07:29:05;2.83;;;2.60;;
65567;SDS011;52211;50.154;8.682;2023-07-16T07:31:34;3.23;;;2.50;;
65567;SDS011;52211;50.154;8.682;2023-07-16T07:34:03;2.57;;;2.10;;
65567;SDS011;52211;50.154;8.682;2023-07-16T07:36:32;3.13;;;2.83;;
65567;SDS011;52211;50.154;8.682;2023-07-16T07:39:02;4.97;;;2.50;;
65567;SDS011;52211;50.154;8.682;2023-07-16T07:41:31;3.23;;;2.70;;
65567;SDS011;52211;50.154;8.682;2023-07-16T07:43:58;5.60;;;2.17;;
65567;SDS011;52211;50.154;8.682;2023-07-16T07:46:30;4.37;;;2.50;;
65567;SDS011;52211;50.154;8.682;2023-07-16T07:48:57;6.00;;;2.57;;
65567;SDS011;52211;50.154;8.682;2023-07-16T07:51:24;3.40;;;2.20;;
65567;SDS011;52211;50.154;8.682;2023-07-16T07:53:50;2.37;;;2.17;;
65567;SDS011;52211;50.154;8.682;2023-07-16T07:56:19;2.63;;;2.33;;
65567;SDS011;52211;50.154;8.682;2023-07-16T07:58:46;2.40;;;2.20;;
65567;SDS011;52211;50.154;8.682;2023-07-16T08:01:18;2.90;;;2.60;;
65567;SDS011;52211;50.154;8.682;2023-07-16T08:03:47;2.83;;;2.50;;
65567;SDS011;52211;50.154;8.682;2023-07-16T08:06:15;3.40;;;2.47;;
65567;SDS011;52211;50.154;8.682;2023-07-16T08:08:42;4.07;;;2.60;;
65567;SDS011;52211;50.154;8.682;2023-07-16T08:11:14;3.37;;;1.90;;
65567;SDS011;52211;50.154;8.682;2023-07-16T08:13:43;3.87;;;2.37;;
65567;SDS011;52211;50.154;8.682;2023-07-16T08:16:12;6.93;;;2.50;;
65567;SDS011;52211;50.154;8.682;2023-07-16T08:18:39;3.07;;;2.83;;
65567;SDS011;52211;50.154;8.682;2023-07-16T08:21:11;3.60;;;2.60;;
65567;SDS011;52211;50.154;8.682;2023-07-16T08:23:49;2.50;;;1.97;;
65567;SDS011;52211;50.154;8.682;2023-07-16T08:26:16;2.73;;;2.07;;
65567;SDS011;52211;50.154;8.682;2023-07-16T08:28:47;3.47;;;2.20;;
65567;SDS011;52211;50.154;8.682;2023-07-16T08:31:13;2.43;;;2.10;;
65567;SDS011;52211;50.154;8.682;2023-07-16T08:33:43;2.97;;;2.10;;
65567;SDS011;52211;50.154;8.682;2023-07-16T08:36:12;5.00;;;2.40;;
65567;SDS011;52211;50.154;8.682;2023-07-16T08:38:42;3.87;;;2.20;;
65567;SDS011;52211;50.154;8.682;2023-07-16T08:41:11;3.07;;;2.03;;
65567;SDS011;52211;50.154;8.682;2023-07-16T08:43:38;4.97;;;2.43;;
65567;SDS011;52211;50.154;8.682;2023-07-16T08:46:06;3.10;;;2.20;;
65567;SDS011;52211;50.154;8.682;2023-07-16T08:48:34;3.80;;;2.20;;
65567;SDS011;52211;50.154;8.682;2023-07-16T08:51:09;2.53;;;2.20;;
65567;SDS011;52211;50.154;8.682;2023-07-16T08:53:42;3.33;;;2.13;;
65567;SDS011;52211;50.154;8.682;2023-07-16T08:56:11;2.80;;;2.23;;
65567;SDS011;52211;50.154;8.682;2023-07-16T08:58:38;3.20;;;2.17;;
65567;SDS011;52211;50.154;8.682;2023-07-16T09:01:11;2.63;;;2.23;;
65567;SDS011;52211;50.154;8.682;2023-07-16T09:03:51;4.70;;;2.23;;
65567;SDS011;52211;50.154;8.682;2023-07-16T09:06:20;2.30;;;2.00;;
65567;SDS011;52211;50.154;8.682;2023-07-16T09:08:47;3.87;;;2.57;;
65567;SDS011;52211;50.154;8.682;2023-07-16T09:11:17;4.17;;;2.00;;
65567;SDS011;52211;50.154;8.682;2023-07-16T09:13:48;4.40;;;2.10;;
65567;SDS011;52211;50.154;8.682;2023-07-16T09:16:19;2.77;;;2.57;;
65567;SDS011;52211;50.154;8.682;2023-07-16T09:18:47;2.40;;;2.00;;
65567;SDS011;52211;50.154;8.682;2023-07-16T09:21:17;3.43;;;1.87;;
65567;SDS011;52211;50.154;8.682;2023-07-16T09:23:46;2.23;;;2.10;;
65567;SDS011;52211;50.154;8.682;2023-07-16T09:26:15;3.47;;;2.03;;
65567;SDS011;52211;50.154;8.682;2023-07-16T09:28:47;2.03;;;1.90;;
65567;SDS011;52211;50.154;8.682;2023-07-16T09:31:15;1.87;;;1.77;;
65567;SDS011;52211;50.154;8.682;2023-07-16T09:33:42;2.80;;;2.23;;
65567;SDS011;52211;50.154;8.682;2023-07-16T09:36:13;2.17;;;1.97;;
65567;SDS011;52211;50.154;8.682;2023-07-16T09:38:49;2.53;;;1.90;;
65567;SDS011;52211;50.154;8.682;2023-07-16T09:41:22;3.63;;;1.70;;
65567;SDS011;52211;50.154;8.682;2023-07-16T09:43:49;2.63;;;1.90;;
65567;SDS011;52211;50.154;8.682;2023-07-16T09:46:16;2.67;;;1.90;;
65567;SDS011;52211;50.154;8.682;2023-07-16T09:48:48;5.83;;;2.43;;
65567;SDS011;52211;50.154;8.682;2023-07-16T09:51:17;3.87;;;2.00;;
65567;SDS011;52211;50.154;8.682;2023-07-16T09:53:46;2.20;;;1.90;;
65567;SDS011;52211;50.154;8.682;2023-07-16T09:56:18;3.80;;;1.97;;
65567;SDS011;52211;50.154;8.682;2023-07-16T09:58:47;2.57;;;1.90;;
65567;SDS011;52211;50.154;8.682;2023-07-16T10:01:20;2.27;;;1.90;;
65567;SDS011;52211;50.154;8.682;2023-07-16T10:03:49;2.90;;;2.70;;
65567;SDS011;52211;50.154;8.682;2023-07-16T10:06:19;3.60;;;1.87;;
65567;SDS011;52211;50.154;8.682;2023-07-16T10:08:55;1.70;;;1.60;;
65567;SDS011;52211;50.154;8.682;2023-07-16T10:11:23;2.57;;;1.57;;
65567;SDS011;52211;50.154;8.682;2023-07-16T10:13:50;2.77;;;1.70;;
65567;SDS011;52211;50.154;8.682;2023-07-16T10:16:20;3.10;;;2.10;;
65567;SDS011;52211;50.154;8.682;2023-07-16T10:18:58;3.90;;;2.17;;
65567;SDS011;52211;50.154;8.682;2023-07-16T10:21:29;3.17;;;1.70;;
65567;SDS011;52211;50.154;8.682;2023-07-16T10:24:15;4.87;;;2.13;;
65567;SDS011;52211;50.154;8.682;2023-07-16T10:26:49;2.03;;;1.90;;
65567;SDS011;52211;50.154;8.682;2023-07-16T10:29:16;2.67;;;1.97;;
65567;SDS011;52211;50.154;8.682;2023-07-16T10:31:45;2.00;;;1.80;;
65567;SDS011;52211;50.154;8.682;2023-07-16T10:34:14;3.93;;;2.10;;
65567;SDS011;52211;50.154;8.682;2023-07-16T10:36:45;3.47;;;2.30;;
65567;SDS011;52211;50.154;8.682;2023-07-16T10:39:12;2.03;;;1.80;;
65567;SDS011;52211;50.154;8.682;2023-07-16T10:41:44;2.40;;;2.23;;
65567;SDS011;52211;50.154;8.682;2023-07-16T10:44:16;4.27;;;2.00;;
65567;SDS011;52211;50.154;8.682;2023-07-16T10:46:51;3.40;;;2.10;;
65567;SDS011;52211;50.154;8.682;2023-07-16T10:49:27;2.00;;;1.90;;
65567;SDS011;52211;50.154;8.682;2023-07-16T10:51:54;1.73;;;1.63;;
65567;SDS011;52211;50.154;8.682;2023-07-16T10:54:25;4.53;;;2.43;;
65567;SDS011;52211;50.154;8.682;2023-07-16T10:56:54;4.07;;;1.97;;
65567;SDS011;52211;50.154;8.682;2023-07-16T10:59:24;2.23;;;1.87;;
65567;SDS011;52211;50.154;8.682;2023-07-16T11:01:50;1.93;;;1.60;;
65567;SDS011;52211;50.154;8.682;2023-07-16T11:04:18;4.33;;;2.07;;
65567;SDS011;52211;50.154;8.682;2023-07-16T11:06:49;2.73;;;1.80;;
65567;SDS011;52211;50.154;8.682;2023-07-16T11:09:18;2.57;;;2.03;;
65567;SDS011;52211;50.154;8.682;2023-07-16T11:11:50;3.70;;;2.47;;
65567;SDS011;52211;50.154;8.682;2023-07-16T11:14:19;3.70;;;2.37;;
65567;SDS011;52211;50.154;8.682;2023-07-16T11:16:48;2.13;;;1.97;;
65567;SDS011;52211;50.154;8.682;2023-07-16T11:19:19;4.20;;;1.90;;
65567;SDS011;52211;50.154;8.682;2023-07-16T11:21:47;2.07;;;1.90;;
65567;SDS011;52211;50.154;8.682;2023-07-16T11:24:15;2.10;;;1.90;;
65567;SDS011;52211;50.154;8.682;2023-07-16T11:26:51;3.40;;;1.77;;
65567;SDS011;52211;50.154;8.682;2023-07-16T11:29:20;4.80;;;1.97;;
65567;SDS011;52211;50.154;8.682;2023-07-16T11:31:51;2.63;;;2.10;;
65567;SDS011;52211;50.154;8.682;2023-07-16T11:34:19;4.93;;;2.30;;
65567;SDS011;52211;50.154;8.682;2023-07-16T11:36:49;3.00;;;1.90;;
65567;SDS011;52211;50.154;8.682;2023-07-16T11:39:23;2.20;;;1.67;;
65567;SDS011;52211;50.154;8.682;2023-07-16T11:41:56;1.87;;;1.67;;
65567;SDS011;52211;50.154;8.682;2023-07-16T11:44:32;2.93;;;1.70;;
65567;SDS011;52211;50.154;8.682;2023-07-16T11:47:04;2.37;;;1.63;;
65567;SDS011;52211;50.154;8.682;2023-07-16T11:49:35;2.10;;;1.90;;
65567;SDS011;52211;50.154;8.682;2023-07-16T11:52:01;1.97;;;1.87;;
65567;SDS011;52211;50.154;8.682;2023-07-16T11:54:38;3.17;;;1.80;;
65567;SDS011;52211;50.154;8.682;2023-07-16T11:57:05;2.77;;;2.20;;
65567;SDS011;52211;50.154;8.682;2023-07-16T11:59:32;2.40;;;1.60;;
65567;SDS011;52211;50.154;8.682;2023-07-16T12:02:02;1.83;;;1.63;;
65567;SDS011;52211;50.154;8.682;2023-07-16T12:04:31;3.17;;;1.97;;
65567;SDS011;52211;50.154;8.682;2023-07-16T12:07:00;2.57;;;1.40;;
65567;SDS011;52211;50.154;8.682;2023-07-16T12:09:30;1.90;;;1.70;;
65567;SDS011;52211;50.154;8.682;2023-07-16T12:11:56;2.40;;;1.97;;
65567;SDS011;52211;50.154;8.682;2023-07-16T12:14:23;2.80;;;1.90;;
65567;SDS011;52211;50.154;8.682;2023-07-16T12:16:55;3.67;;;1.73;;
65567;SDS011;52211;50.154;8.682;2023-07-16T12:19:22;2.27;;;1.80;;
65567;SDS011;52211;50.154;8.682;2023-07-16T12:21:50;3.20;;;2.03;;
65567;SDS011;52211;50.154;8.682;2023-07-16T12:24:23;2.47;;;2.27;;
65567;SDS011;52211;50.154;8.682;2023-07-16T12:26:52;1.80;;;1.70;;
65567;SDS011;52211;50.154;8.682;2023-07-16T12:29:19;2.33;;;2.13;;
65567;SDS011;52211;50.154;8.682;2023-07-16T12:31:49;3.30;;;1.63;;
65567;SDS011;52211;50.154;8.682;2023-07-16T12:34:16;4.80;;;2.70;;
65567;SDS011;52211;50.154;8.682;2023-07-16T12:36:48;3.50;;;1.77;;
65567;SDS011;52211;50.154;8.682;2023-07-16T12:39:17;3.00;;;1.97;;
65567;SDS011;52211;50.154;8.682;2023-07-16T12:41:47;2.50;;;1.77;;
65567;SDS011;52211;50.154;8.682;2023-07-16T12:44:14;2.77;;;1.87;;
65567;SDS011;52211;50.154;8.682;2023-07-16T12:46:40;3.33;;;2.03;;
65567;SDS011;52211;50.154;8.682;2023-07-16T12:49:07;2.70;;;1.83;;
65567;SDS011;52211;50.154;8.682;2023-07-16T12:51:34;2.77;;;2.20;;
65567;SDS011;52211;50.154;8.682;2023-07-16T12:54:04;2.70;;;1.60;;
65567;SDS011;52211;50.154;8.682;2023-07-16T12:56:33;2.27;;;1.90;;
65567;SDS011;52211;50.154;8.682;2023-07-16T12:59:00;3.07;;;2.77;;
65567;SDS011;52211;50.154;8.682;2023-07-16T13:01:30;2.50;;;2.30;;
65567;SDS011;52211;50.154;8.682;2023-07-16T13:03:57;2.80;;;1.80;;
65567;SDS011;52211;50.154;8.682;2023-07-16T13:06:24;5.37;;;2.23;;
65567;SDS011;52211;50.154;8.682;2023-07-16T13:08:51;2.53;;;2.30;;
65567;SDS011;52211;50.154;8.682;2023-07-16T13:11:18;2.40;;;2.20;;
65567;SDS011;52211;50.154;8.682;2023-07-16T13:13:49;2.37;;;2.17;;
65567;SDS011;52211;50.154;8.682;2023-07-16T13:16:18;2.77;;;2.50;;
65567;SDS011;52211;50.154;8.682;2023-07-16T13:18:46;4.67;;;2.77;;
65567;SDS011;52211;50.154;8.682;2023-07-16T13:21:13;2.60;;;2.40;;
65567;SDS011;52211;50.154;8.682;2023-07-16T13:23:40;2.43;;;2.23;;
65567;SDS011;52211;50.154;8.682;2023-07-16T13:26:11;4.30;;;2.83;;
65567;SDS011;52211;50.154;8.682;2023-07-16T13:28:41;2.80;;;2.60;;
65567;SDS011;52211;50.154;8.682;2023-07-16T13:31:13;3.53;;;3.23;;
65567;SDS011;52211;50.154;8.682;2023-07-16T13:33:40;5.40;;;2.87;;
65567;SDS011;52211;50.154;8.682;2023-07-16T13:36:07;2.70;;;2.50;;
65567;SDS011;52211;50.154;8.682;2023-07-16T13:38:39;3.60;;;2.80;;
65567;SDS011;52211;50.154;8.682;2023-07-16T13:41:08;4.70;;;2.23;;
65567;SDS011;52211;50.154;8.682;2023-07-16T13:43:40;4.60;;;3.00;;
65567;SDS011;52211;50.154;8.682;2023-07-16T13:46:11;3.00;;;2.67;;
65567;SDS011;52211;50.154;8.682;2023-07-16T13:48:38;4.07;;;2.37;;
65567;SDS011;52211;50.154;8.682;2023-07-16T13:51:22;2.67;;;2.47;;
65567;SDS011;52211;50.154;8.682;2023-07-16T13:53:54;3.03;;;2.10;;
65567;SDS011;52211;50.154;8.682;2023-07-16T13:56:26;2.40;;;2.20;;
65567;SDS011;52211;50.154;8.682;2023-07-16T13:58:55;4.10;;;2.73;;
65567;SDS011;52211;50.154;8.682;2023-07-16T14:01:27;4.00;;;3.60;;
65567;SDS011;52211;50.154;8.682;2023-07-16T14:03:54;2.37;;;2.10;;
65567;SDS011;52211;50.154;8.682;2023-07-16T14:06:24;4.87;;;2.90;;
65567;SDS011;52211;50.154;8.682;2023-07-16T14:08:51;3.33;;;2.37;;
65567;SDS011;52211;50.154;8.682;2023-07-16T14:11:23;4.33;;;2.67;;
65567;SDS011;52211;50.154;8.682;2023-07-16T14:13:52;3.07;;;2.70;;
65567;SDS011;52211;50.154;8.682;2023-07-16T14:16:22;4.57;;;2.50;;
65567;SDS011;52211;50.154;8.682;2023-07-16T14:18:52;2.63;;;2.27;;
65567;SDS011;52211;50.154;8.682;2023-07-16T14:21:20;3.43;;;2.47;;
65567;SDS011;52211;50.154;8.682;2023-07-16T14:23:47;2.47;;;2.10;;
65567;SDS011;52211;50.154;8.682;2023-07-16T14:26:16;4.00;;;2.50;;
65567;SDS011;52211;50.154;8.682;2023-07-16T14:28:43;2.53;;;2.33;;
65567;SDS011;52211;50.154;8.682;2023-07-16T14:31:12;2.40;;;2.20;;
65567;SDS011;52211;50.154;8.682;2023-07-16T14:33:42;3.57;;;2.40;;
65567;SDS011;52211;50.154;8.682;2023-07-16T14:36:11;3.13;;;2.83;;
65567;SDS011;52211;50.154;8.682;2023-07-16T14:38:41;3.40;;;2.80;;
65567;SDS011;52211;50.154;8.682;2023-07-16T14:41:08;3.53;;;2.97;;
65567;SDS011;52211;50.154;8.682;2023-07-16T14:43:35;4.77;;;2.47;;
65567;SDS011;52211;50.154;8.682;2023-07-16T14:46:02;3.00;;;2.67;;
65567;SDS011;52211;50.154;8.682;2023-07-16T14:48:32;2.97;;;2.50;;
65567;SDS011;52211;50.154;8.682;2023-07-16T14:51:01;3.50;;;2.50;;
65567;SDS011;52211;50.154;8.682;2023-07-16T14:53:32;3.23;;;2.80;;
65567;SDS011;52211;50.154;8.682;2023-07-16T14:56:02;3.83;;;2.50;;
65567;SDS011;52211;50.154;8.682;2023-07-16T14:58:32;4.20;;;3.23;;
65567;SDS011;52211;50.154;8.682;2023-07-16T15:01:03;3.77;;;3.03;;
65567;SDS011;52211;50.154;8.682;2023-07-16T15:03:36;2.70;;;2.50;;
65567;SDS011;52211;50.154;8.682;2023-07-16T15:06:07;3.10;;;2.80;;
65567;SDS011;52211;50.154;8.682;2023-07-16T15:08:36;2.73;;;2.50;;
65567;SDS011;52211;50.154;8.682;2023-07-16T15:11:05;3.43;;;2.93;;